Time;durP1;ratioP1;P1;durP2;ratioP2;P2;SDS_P1;SDS_P2;PMS_P1;PMS_P2;Temp;Humidity;BMP_temperature;BMP_pressure;BME280_temperature;BME280_humidity;BME280_pressure;Samples;Min_cycle;Max_cycle;Signal;HPM_P1;HPM_P2
2022/07/03 00:01:57;;;;;;;;;1.67;1.67;;;;;-147.17;100.00;59696.56;4987573;28;51232;-65
2022/07/03 00:04:23;;;;;;;;;1.33;1.33;;;;;-147.17;100.00;59696.56;4987298;28;51671;-64
2022/07/03 00:06:48;;;;;;;;;1.00;1.00;;;;;-147.17;100.00;59696.56;4987067;28;51378;-65
2022/07/03 00:09:14;;;;;;;;;1.00;1.00;;;;;-147.17;100.00;59696.56;4987996;28;51273;-64
2022/07/03 00:11:40;;;;;;;;;1.33;1.33;;;;;-147.17;100.00;59696.56;4988142;28;53482;-66
2022/07/03 00:14:05;;;;;;;;;3.00;1.00;;;;;-147.17;100.00;59696.56;4986892;28;51840;-65
2022/07/03 00:16:31;;;;;;;;;3.00;3.00;;;;;-147.17;100.00;59696.56;4987017;28;51173;-64
2022/07/03 00:18:57;;;;;;;;;1.00;1.00;;;;;-147.17;100.00;59696.56;5002901;28;51331;-63
2022/07/03 00:21:28;;;;;;;;;3.00;2.00;;;;;-147.17;100.00;59696.56;4987879;28;53261;-64
2022/07/03 00:23:56;;;;;;;;;3.00;3.00;;;;;-147.17;100.00;59696.56;4986451;28;51811;-65
2022/07/03 00:26:21;;;;;;;;;5.00;4.67;;;;;-147.17;100.00;59696.56;5002092;28;51309;-64
2022/07/03 00:28:47;;;;;;;;;3.00;3.00;;;;;-147.17;100.00;59696.56;4987069;28;51440;-65
2022/07/03 00:31:13;;;;;;;;;4.00;3.33;;;;;-147.17;100.00;59696.56;4987666;28;51297;-64
2022/07/03 00:33:41;;;;;;;;;3.00;3.00;;;;;-147.17;100.00;59696.56;4987040;28;51180;-65
2022/07/03 00:36:06;;;;;;;;;4.00;4.00;;;;;-147.17;100.00;59696.56;4987134;28;51296;-64
2022/07/03 00:38:32;;;;;;;;;3.67;2.00;;;;;-147.17;100.00;59696.56;4987041;28;53429;-65
2022/07/03 00:40:58;;;;;;;;;2.00;2.00;;;;;-147.17;100.00;59696.56;4987634;28;51218;-65
2022/07/03 00:43:26;;;;;;;;;3.00;2.00;;;;;-147.17;100.00;59696.56;4986848;28;51190;-65
2022/07/03 00:45:53;;;;;;;;;2.00;2.00;;;;;-147.17;100.00;59696.56;4987416;28;51247;-65
2022/07/03 00:48:20;;;;;;;;;4.00;2.67;;;;;-147.17;100.00;59696.56;4987301;28;51348;-64
2022/07/03 00:50:50;;;;;;;;;1.33;1.00;;;;;-147.17;100.00;59696.56;4987406;28;51040;-64
2022/07/03 00:53:27;;;;;;;;;1.67;1.67;;;;;-147.17;100.00;59696.56;4986330;28;51122;-66
2022/07/03 00:55:52;;;;;;;;;2.00;2.00;;;;;-147.17;100.00;59696.56;4986745;28;51166;-66
2022/07/03 00:58:18;;;;;;;;;2.67;2.00;;;;;-147.17;100.00;59696.56;4987248;28;51152;-64
2022/07/03 01:00:45;;;;;;;;;2.00;1.00;;;;;-147.17;100.00;59696.56;4987011;28;51123;-65
2022/07/03 01:03:16;;;;;;;;;3.67;3.67;;;;;-147.17;100.00;59696.56;4986926;28;52893;-65
2022/07/03 01:05:50;;;;;;;;;5.33;4.67;;;;;-147.17;100.00;59696.56;4986280;28;51384;-65
2022/07/03 01:08:41;;;;;;;;;2.00;2.00;;;;;-147.17;100.00;59696.56;4986623;28;51204;-65
2022/07/03 01:11:25;;;;;;;;;1.33;1.33;;;;;-147.17;100.00;59696.56;4987201;28;51293;-65
2022/07/03 01:14:14;;;;;;;;;1.00;1.00;;;;;-147.17;100.00;59696.56;4986823;28;51098;-65
2022/07/03 01:16:54;;;;;;;;;2.00;2.00;;;;;-147.17;100.00;59696.56;4999588;28;51328;-64
2022/07/03 01:19:41;;;;;;;;;2.00;2.00;;;;;-147.17;100.00;59696.56;4986938;28;51229;-66
2022/07/03 01:22:31;;;;;;;;;2.67;2.67;;;;;-147.17;100.00;59696.56;4986473;28;51193;-65
2022/07/03 01:25:16;;;;;;;;;3.00;3.00;;;;;-147.17;100.00;59696.56;4986392;28;52012;-64
2022/07/03 01:27:47;;;;;;;;;2.00;2.00;;;;;-147.17;100.00;59696.56;4986494;28;51176;-64
2022/07/03 01:30:13;;;;;;;;;2.00;2.00;;;;;-147.17;100.00;59696.56;4986207;28;51245;-65
2022/07/03 01:32:43;;;;;;;;;1.00;1.00;;;;;-147.17;100.00;59696.56;4987006;28;51489;-70
2022/07/03 01:35:12;;;;;;;;;1.00;1.00;;;;;-147.17;100.00;59696.56;4985737;28;51974;-65
2022/07/03 01:37:40;;;;;;;;;3.00;3.00;;;;;-147.17;100.00;59696.56;4986289;28;51151;-65
2022/07/03 01:40:06;;;;;;;;;3.33;2.67;;;;;-147.17;100.00;59696.56;4984946;28;51366;-65
2022/07/03 01:42:34;;;;;;;;;4.00;4.00;;;;;-147.17;100.00;59696.56;4985800;28;51171;-65
2022/07/03 01:45:01;;;;;;;;;3.33;3.33;;;;;-147.17;100.00;59696.56;4986015;28;52830;-65
2022/07/03 01:47:28;;;;;;;;;2.00;1.33;;;;;-147.17;100.00;59696.56;4985861;28;51159;-64
2022/07/03 01:49:54;;;;;;;;;1.00;1.00;;;;;-147.17;100.00;59696.56;4986711;28;53707;-65
2022/07/03 01:52:21;;;;;;;;;1.67;1.67;;;;;-147.17;100.00;59696.56;4986139;28;51439;-64
2022/07/03 01:54:48;;;;;;;;;1.00;1.00;;;;;-147.17;100.00;59696.56;4986504;28;51833;-64
2022/07/03 01:57:14;;;;;;;;;1.00;1.00;;;;;-147.17;100.00;59696.56;5001494;28;53522;-64
2022/07/03 01:59:40;;;;;;;;;1.00;1.00;;;;;-147.17;100.00;59696.56;4986227;28;51258;-64
2022/07/03 02:02:32;;;;;;;;;0.67;0.67;;;;;-147.17;100.00;59696.56;4985591;28;51430;-65
2022/07/03 02:05:02;;;;;;;;;1.67;1.67;;;;;-147.17;100.00;59696.56;4985554;28;52050;-63
2022/07/03 02:07:49;;;;;;;;;2.00;0.67;;;;;-147.17;100.00;59696.56;4985208;28;51243;-64
2022/07/03 02:10:16;;;;;;;;;2.67;1.67;;;;;-147.17;100.00;59696.56;4986455;28;51298;-65
2022/07/03 02:12:49;;;;;;;;;2.33;2.00;;;;;-147.17;100.00;59696.56;4985482;28;51592;-65
2022/07/03 02:15:30;;;;;;;;;0.67;0.67;;;;;-147.17;100.00;59696.56;4985564;28;51223;-66
2022/07/03 02:17:57;;;;;;;;;0.67;0.67;;;;;-147.17;100.00;59696.56;4984606;28;51237;-64
2022/07/03 02:20:25;;;;;;;;;1.00;1.00;;;;;-147.17;100.00;59696.56;4985143;28;51103;-65
2022/07/03 02:22:59;;;;;;;;;2.00;1.67;;;;;-147.17;100.00;59696.56;4985572;28;51433;-64
2022/07/03 02:25:35;;;;;;;;;1.00;0.67;;;;;-147.17;100.00;59696.56;4984954;28;53509;-64
2022/07/03 02:28:17;;;;;;;;;0.67;0.67;;;;;-147.17;100.00;59696.56;4985679;28;51201;-64
2022/07/03 02:30:48;;;;;;;;;1.00;0.67;;;;;-147.17;100.00;59696.56;4985343;28;51363;-65
2022/07/03 02:33:21;;;;;;;;;0.33;0.33;;;;;-147.17;100.00;59696.56;4985612;28;51371;-64
2022/07/03 02:35:47;;;;;;;;;1.67;1.67;;;;;-147.17;100.00;59696.56;4985228;28;53390;-65
2022/07/03 02:38:18;;;;;;;;;0.67;0.67;;;;;-147.17;100.00;59696.56;4985472;28;51249;-65
2022/07/03 02:40:56;;;;;;;;;1.00;1.00;;;;;-147.17;100.00;59696.56;4985906;28;53581;-64
2022/07/03 02:43:38;;;;;;;;;0.67;0.00;;;;;-147.17;100.00;59696.56;4985768;28;53510;-65
2022/07/03 02:49:17;;;;;;;;;2.67;2.67;;;;;-147.17;100.00;59696.56;4985327;28;51503;-65
2022/07/03 02:51:48;;;;;;;;;1.33;1.33;;;;;-147.17;100.00;59696.56;4985095;28;51133;-64
2022/07/03 02:54:15;;;;;;;;;2.00;1.00;;;;;-147.17;100.00;59696.56;4985313;28;51079;-64
2022/07/03 02:56:43;;;;;;;;;4.00;4.00;;;;;-147.17;100.00;59696.56;4985009;28;51826;-65
2022/07/03 02:59:35;;;;;;;;;2.67;2.67;;;;;-147.17;100.00;59696.56;4985397;28;51163;-65
2022/07/03 03:02:12;;;;;;;;;3.33;2.67;;;;;-147.17;100.00;59696.56;5000374;28;51167;-64
2022/07/03 03:04:43;;;;;;;;;0.67;0.67;;;;;-147.17;100.00;59696.56;5000278;28;51295;-64
2022/07/03 03:07:14;;;;;;;;;2.67;2.67;;;;;-147.17;100.00;59696.56;4984068;28;52125;-64
2022/07/03 03:09:45;;;;;;;;;3.00;2.67;;;;;-147.17;100.00;59696.56;4985664;28;51185;-64
2022/07/03 03:12:12;;;;;;;;;1.33;1.33;;;;;-147.17;100.00;59696.56;4978477;28;51210;-66
2022/07/03 03:14:43;;;;;;;;;1.33;1.33;;;;;-147.17;100.00;59696.56;4985138;28;51157;-64
2022/07/03 03:17:33;;;;;;;;;1.67;0.67;;;;;-147.17;100.00;59696.56;4984683;28;52838;-65
2022/07/03 03:20:00;;;;;;;;;2.67;2.67;;;;;-147.17;100.00;59696.56;4985389;28;51360;-64
2022/07/03 03:23:09;;;;;;;;;1.33;1.33;;;;;-147.17;100.00;59696.56;4984460;28;51209;-65
2022/07/03 03:25:35;;;;;;;;;0.33;0.33;;;;;-147.17;100.00;59696.56;4984757;28;51389;-65
2022/07/03 03:28:01;;;;;;;;;1.00;1.00;;;;;-147.17;100.00;59696.56;4983694;28;52893;-65
2022/07/03 03:30:26;;;;;;;;;1.67;1.67;;;;;-147.17;100.00;59696.56;4988418;28;51443;-65
2022/07/03 03:32:51;;;;;;;;;1.33;1.33;;;;;-147.17;100.00;59696.56;4988615;28;52520;-65
2022/07/03 03:35:17;;;;;;;;;2.00;2.00;;;;;-147.17;100.00;59696.56;4988525;28;51268;-65
2022/07/03 03:37:44;;;;;;;;;1.33;1.00;;;;;-147.17;100.00;59696.56;4988010;28;51665;-64
2022/07/03 03:40:11;;;;;;;;;1.33;1.33;;;;;-147.17;100.00;59696.56;4988642;28;51430;-65
2022/07/03 03:42:36;;;;;;;;;2.00;2.00;;;;;-147.17;100.00;59696.56;4988519;28;51344;-64
2022/07/03 03:45:02;;;;;;;;;2.00;1.33;;;;;-147.17;100.00;59696.56;4987852;28;51368;-64
2022/07/03 03:47:28;;;;;;;;;2.00;2.00;;;;;-147.17;100.00;59696.56;4987797;28;51340;-64
2022/07/03 03:49:54;;;;;;;;;3.67;3.67;;;;;-147.17;100.00;59696.56;4987702;28;51288;-64
2022/07/03 03:52:20;;;;;;;;;3.00;3.00;;;;;-147.17;100.00;59696.56;4988213;28;51122;-64
2022/07/03 03:54:45;;;;;;;;;1.00;1.00;;;;;-147.17;100.00;59696.56;4988607;28;51230;-64
2022/07/03 03:57:24;;;;;;;;;6.67;6.67;;;;;-147.17;100.00;59696.56;4987795;28;51966;-64
2022/07/03 03:59:50;;;;;;;;;1.33;1.33;;;;;-147.17;100.00;59696.56;4988298;28;51289;-65
2022/07/03 04:02:16;;;;;;;;;2.33;2.33;;;;;-147.17;100.00;59696.56;4988677;28;51113;-65
2022/07/03 04:04:42;;;;;;;;;6.67;6.33;;;;;-147.17;100.00;59696.56;4987667;28;51168;-64
2022/07/03 04:07:08;;;;;;;;;2.00;2.00;;;;;-147.17;100.00;59696.56;4987326;28;51826;-64
2022/07/03 04:09:34;;;;;;;;;2.00;2.00;;;;;-147.17;100.00;59696.56;4987974;28;51148;-64
2022/07/03 04:11:59;;;;;;;;;2.33;2.33;;;;;-147.17;100.00;59696.56;4987869;28;51226;-64
2022/07/03 04:14:24;;;;;;;;;2.00;2.00;;;;;-147.17;100.00;59696.56;4987951;28;51051;-66
2022/07/03 04:16:50;;;;;;;;;3.00;2.00;;;;;-147.17;100.00;59696.56;4987361;28;51233;-65
2022/07/03 04:19:15;;;;;;;;;1.67;1.67;;;;;-147.17;100.00;59696.56;4986812;28;53493;-65
2022/07/03 04:21:41;;;;;;;;;1.00;1.00;;;;;-147.17;100.00;59696.56;4987998;28;51239;-65
2022/07/03 04:24:06;;;;;;;;;1.00;1.00;;;;;-147.17;100.00;59696.56;4988108;28;53679;-65
2022/07/03 04:26:32;;;;;;;;;3.00;2.33;;;;;-147.17;100.00;59696.56;4987342;28;51288;-64
2022/07/03 04:28:57;;;;;;;;;7.00;7.00;;;;;-147.17;100.00;59696.56;4987940;28;51130;-64
2022/07/03 04:31:22;;;;;;;;;14.00;13.50;;;;;-147.17;100.00;59696.56;5002938;28;51143;-64
2022/07/03 04:33:48;;;;;;;;;20.25;19.25;;;;;-147.17;100.00;59696.56;5002743;28;51315;-65
2022/07/03 04:36:14;;;;;;;;;28.00;27.25;;;;;-147.17;100.00;59696.56;4986688;28;51281;-65
2022/07/03 04:38:39;;;;;;;;;35.75;32.25;;;;;-147.17;100.00;59696.56;4986883;28;51191;-65
2022/07/03 04:41:04;;;;;;;;;34.75;32.00;;;;;-147.17;100.00;59696.56;4986093;28;51071;-65
2022/07/03 04:43:30;;;;;;;;;35.25;32.25;;;;;-147.17;100.00;59696.56;5003067;28;51308;-65
2022/07/03 04:45:55;;;;;;;;;40.25;35.75;;;;;-147.17;100.00;59696.56;4987154;28;51862;-64
2022/07/03 04:48:20;;;;;;;;;17.00;16.00;;;;;-147.17;100.00;59696.56;4981238;28;51200;-64
2022/07/03 04:50:46;;;;;;;;;32.00;29.75;;;;;-147.17;100.00;59696.56;4987467;28;52166;-65
2022/07/03 04:53:11;;;;;;;;;22.50;21.50;;;;;-147.17;100.00;59696.56;4987485;28;51404;-64
2022/07/03 04:55:37;;;;;;;;;12.25;11.50;;;;;-147.17;100.00;59696.56;4986852;28;55257;-63
2022/07/03 04:58:02;;;;;;;;;10.33;10.33;;;;;-147.17;100.00;59696.56;4987540;28;51365;-65
2022/07/03 05:00:28;;;;;;;;;8.33;8.33;;;;;-147.17;100.00;59696.56;4987603;28;51258;-64
2022/07/03 05:02:53;;;;;;;;;7.00;6.33;;;;;-147.17;100.00;59696.56;4987674;28;51463;-65
2022/07/03 05:05:18;;;;;;;;;6.00;6.00;;;;;-147.17;100.00;59696.56;4987136;28;51994;-65
2022/07/03 05:07:44;;;;;;;;;8.67;7.67;;;;;-147.17;100.00;59696.56;4992705;28;51245;-64
2022/07/03 05:10:09;;;;;;;;;5.67;5.00;;;;;-147.17;100.00;59696.56;4987096;28;51770;-64
2022/07/03 05:12:35;;;;;;;;;3.67;3.67;;;;;-147.17;100.00;59696.56;4987676;28;52273;-65
2022/07/03 05:15:00;;;;;;;;;1.67;1.67;;;;;-147.17;100.00;59696.56;4986855;28;51728;-64
2022/07/03 05:17:25;;;;;;;;;2.00;2.00;;;;;-147.17;100.00;59696.56;4986743;28;51371;-65
2022/07/03 05:22:35;;;;;;;;;1.00;1.00;;;;;-147.17;100.00;59696.56;4986964;28;51099;-64
2022/07/03 05:25:00;;;;;;;;;1.00;1.00;;;;;-147.17;100.00;59696.56;4986961;28;51107;-64
2022/07/03 05:27:25;;;;;;;;;1.00;1.00;;;;;-147.17;100.00;59696.56;4986597;28;51201;-64
2022/07/03 05:29:51;;;;;;;;;1.00;1.00;;;;;-147.17;100.00;59696.56;4986556;28;51233;-64
2022/07/03 05:32:16;;;;;;;;;1.00;1.00;;;;;-147.17;100.00;59696.56;5001758;28;51190;-65
2022/07/03 05:34:41;;;;;;;;;1.00;1.00;;;;;-147.17;100.00;59696.56;4986611;28;51283;-65
2022/07/03 05:37:06;;;;;;;;;1.00;1.00;;;;;-147.17;100.00;59696.56;4986076;28;51239;-65
2022/07/03 05:39:32;;;;;;;;;1.00;1.00;;;;;-147.17;100.00;59696.56;5000587;28;51227;-65
2022/07/03 05:41:57;;;;;;;;;1.00;1.00;;;;;-147.17;100.00;59696.56;4987308;28;51152;-63
2022/07/03 05:44:22;;;;;;;;;2.00;2.00;;;;;-147.17;100.00;59696.56;4986562;28;51133;-64
2022/07/03 05:46:48;;;;;;;;;1.00;1.00;;;;;-147.17;100.00;59696.56;5001561;28;51366;-64
2022/07/03 05:49:13;;;;;;;;;1.67;1.00;;;;;-147.17;100.00;59696.56;4986912;28;51368;-65
2022/07/03 05:51:39;;;;;;;;;1.00;1.00;;;;;-147.17;100.00;59696.56;4986435;28;53432;-65
2022/07/03 05:54:04;;;;;;;;;1.00;1.00;;;;;-147.17;100.00;59696.56;4986238;28;51701;-65
2022/07/03 05:56:30;;;;;;;;;1.33;1.33;;;;;-147.17;100.00;59696.56;5001765;28;51170;-66
2022/07/03 05:58:55;;;;;;;;;1.33;1.00;;;;;-147.17;100.00;59696.56;4986618;28;51078;-64
2022/07/03 06:01:20;;;;;;;;;1.00;1.00;;;;;-147.17;100.00;59696.56;4986643;28;51386;-65
2022/07/03 06:03:45;;;;;;;;;1.00;1.00;;;;;-147.17;100.00;59696.56;4986130;28;51934;-64
2022/07/03 06:06:11;;;;;;;;;1.00;1.00;;;;;-147.17;100.00;59696.56;4984916;28;51435;-65
2022/07/03 06:08:36;;;;;;;;;0.33;0.33;;;;;-147.17;100.00;59696.56;4985814;28;51223;-64
2022/07/03 06:11:02;;;;;;;;;0.67;0.33;;;;;-147.17;100.00;59696.56;4986455;28;51320;-66
2022/07/03 06:13:27;;;;;;;;;0.00;0.00;;;;;-147.17;100.00;59696.56;4986257;28;51202;-65
2022/07/03 06:15:52;;;;;;;;;1.33;1.33;;;;;-147.17;100.00;59696.56;4986014;28;51223;-65
2022/07/03 06:18:18;;;;;;;;;0.00;0.00;;;;;-147.17;100.00;59696.56;4986188;28;53204;-66
2022/07/03 06:20:43;;;;;;;;;0.00;0.00;;;;;-147.17;100.00;59696.56;4986343;28;51365;-64
2022/07/03 06:23:08;;;;;;;;;0.33;0.33;;;;;-147.17;100.00;59696.56;4985170;28;52084;-64
2022/07/03 06:25:34;;;;;;;;;1.00;1.00;;;;;-147.17;100.00;59696.56;4986134;28;51217;-65
2022/07/03 06:27:59;;;;;;;;;0.00;0.00;;;;;-147.17;100.00;59696.56;4986149;28;51128;-65
2022/07/03 06:30:24;;;;;;;;;0.00;0.00;;;;;-147.17;100.00;59696.56;4985754;28;51055;-65
2022/07/03 06:32:50;;;;;;;;;0.00;0.00;;;;;-147.17;100.00;59696.56;5000925;28;51845;-65
2022/07/03 06:35:15;;;;;;;;;0.00;0.00;;;;;-147.17;100.00;59696.56;4985725;28;51360;-64
2022/07/03 06:37:40;;;;;;;;;0.00;0.00;;;;;-147.17;100.00;59696.56;5001027;28;53802;-68
2022/07/03 06:40:06;;;;;;;;;1.00;1.00;;;;;-147.17;100.00;59696.56;4985560;28;51253;-65
2022/07/03 06:42:32;;;;;;;;;1.00;1.00;;;;;-147.17;100.00;59696.56;4985144;28;52302;-65
2022/07/03 06:44:57;;;;;;;;;0.00;0.00;;;;;-147.17;100.00;59696.56;4985328;28;52444;-64
2022/07/03 06:47:22;;;;;;;;;1.33;0.00;;;;;-147.17;100.00;59696.56;4985363;28;51222;-64
2022/07/03 06:49:48;;;;;;;;;0.00;0.00;;;;;-147.17;100.00;59696.56;4985602;28;51312;-64
2022/07/03 06:52:13;;;;;;;;;1.00;1.00;;;;;-147.17;100.00;59696.56;4985106;28;52231;-64
2022/07/03 06:54:41;;;;;;;;;1.00;1.00;;;;;-147.17;100.00;59696.56;4984999;28;51260;-64
2022/07/03 06:57:06;;;;;;;;;0.67;0.67;;;;;-147.17;100.00;59696.56;4985406;28;51522;-64
2022/07/03 06:59:32;;;;;;;;;1.33;1.33;;;;;-147.17;100.00;59696.56;4985406;28;51234;-65
2022/07/03 07:01:57;;;;;;;;;2.00;2.00;;;;;-147.17;100.00;59696.56;4985040;28;51583;-64
2022/07/03 07:04:22;;;;;;;;;1.00;1.00;;;;;-147.17;100.00;59696.56;4990711;28;51389;-64
2022/07/03 07:06:47;;;;;;;;;1.00;1.00;;;;;-147.17;100.00;59696.56;4985277;28;51495;-64
2022/07/03 07:09:13;;;;;;;;;2.00;1.67;;;;;-147.17;100.00;59696.56;4985605;28;51079;-66
2022/07/03 07:11:38;;;;;;;;;1.00;1.00;;;;;-147.17;100.00;59696.56;4985065;28;51259;-64
2022/07/03 07:14:03;;;;;;;;;1.00;1.00;;;;;-147.17;100.00;59696.56;4985488;28;51138;-64
2022/07/03 07:16:29;;;;;;;;;1.00;1.00;;;;;-147.17;100.00;59696.56;4985129;28;51232;-64
2022/07/03 07:18:54;;;;;;;;;1.33;1.33;;;;;-147.17;100.00;59696.56;4985738;28;51382;-65
2022/07/03 07:21:20;;;;;;;;;1.00;1.00;;;;;-147.17;100.00;59696.56;4983923;28;51137;-65
2022/07/03 07:23:45;;;;;;;;;1.00;1.00;;;;;-147.17;100.00;59696.56;4984623;28;51231;-65
2022/07/03 07:26:11;;;;;;;;;1.00;1.00;;;;;-147.17;100.00;59696.56;4984740;28;51289;-65
2022/07/03 07:28:37;;;;;;;;;1.67;1.67;;;;;-147.17;100.00;59696.56;4985317;28;51117;-64
2022/07/03 07:31:02;;;;;;;;;2.00;2.00;;;;;-147.17;100.00;59696.56;4984626;28;51721;-65
2022/07/03 07:33:28;;;;;;;;;4.00;4.00;;;;;-147.17;100.00;59696.56;4984801;28;51125;-64
2022/07/03 07:35:53;;;;;;;;;1.00;1.00;;;;;-147.17;100.00;59696.56;4985098;28;51130;-64
2022/07/03 07:38:18;;;;;;;;;3.33;2.00;;;;;-147.17;100.00;59696.56;5000215;28;51413;-64
2022/07/03 07:40:44;;;;;;;;;2.33;2.33;;;;;-147.17;100.00;59696.56;4984908;28;51481;-66
2022/07/03 07:43:09;;;;;;;;;2.33;2.33;;;;;-147.17;100.00;59696.56;4984860;28;51272;-65
2022/07/03 07:45:35;;;;;;;;;1.00;0.00;;;;;-147.17;100.00;59696.56;4985411;28;51478;-64
2022/07/03 07:48:00;;;;;;;;;3.00;3.00;;;;;-147.17;100.00;59696.56;4984969;28;51405;-65
2022/07/03 07:50:27;;;;;;;;;2.00;2.00;;;;;-147.17;100.00;59696.56;5000018;28;52781;-64
2022/07/03 07:52:52;;;;;;;;;2.67;1.33;;;;;-147.17;100.00;59696.56;4984514;28;51277;-64
2022/07/03 07:55:20;;;;;;;;;1.00;1.00;;;;;-147.17;100.00;59696.56;4984745;28;51340;-66
2022/07/03 07:57:45;;;;;;;;;1.00;1.00;;;;;-147.17;100.00;59696.56;4985048;28;53366;-64
2022/07/03 08:00:14;;;;;;;;;1.67;1.67;;;;;-147.17;100.00;59696.56;4984574;28;51877;-64
2022/07/03 08:05:36;;;;;;;;;2.33;1.67;;;;;-147.17;100.00;59696.56;4984399;28;51318;-65
2022/07/03 08:08:02;;;;;;;;;1.00;1.00;;;;;-147.17;100.00;59696.56;4983700;28;51195;-65
2022/07/03 08:10:27;;;;;;;;;2.00;1.00;;;;;-147.17;100.00;59696.56;4983967;28;51859;-65
2022/07/03 08:12:53;;;;;;;;;1.00;1.00;;;;;-147.17;100.00;59696.56;4984820;28;51237;-65
2022/07/03 08:15:18;;;;;;;;;2.00;2.00;;;;;-147.17;100.00;59696.56;4984363;28;51079;-65
2022/07/03 08:17:44;;;;;;;;;3.00;2.00;;;;;-147.17;100.00;59696.56;4988725;28;51567;-66
2022/07/03 08:20:10;;;;;;;;;2.00;2.00;;;;;-147.17;100.00;59696.56;5002138;28;52037;-65
2022/07/03 08:22:35;;;;;;;;;3.00;3.00;;;;;-147.17;100.00;59696.56;4987555;28;51624;-66
2022/07/03 08:25:00;;;;;;;;;2.00;2.00;;;;;-147.17;100.00;59696.56;5002759;28;53381;-65
2022/07/03 08:27:26;;;;;;;;;3.33;3.33;;;;;-147.17;100.00;59696.56;4987848;28;51283;-64
2022/07/03 08:29:51;;;;;;;;;2.00;2.00;;;;;-147.17;100.00;59696.56;4986832;28;51554;-66
2022/07/03 08:32:17;;;;;;;;;2.00;2.00;;;;;-147.17;100.00;59696.56;4987750;28;51241;-68
2022/07/03 08:34:42;;;;;;;;;2.33;2.33;;;;;-147.17;100.00;59696.56;4987249;28;51150;-65
2022/07/03 08:37:08;;;;;;;;;2.00;2.00;;;;;-147.17;100.00;59696.56;4987174;28;51132;-66
2022/07/03 08:39:33;;;;;;;;;1.00;1.00;;;;;-147.17;100.00;59696.56;4987042;28;53664;-65
2022/07/03 08:41:59;;;;;;;;;2.00;1.00;;;;;-147.17;100.00;59696.56;4986974;28;51839;-66
2022/07/03 08:44:24;;;;;;;;;2.33;1.67;;;;;-147.17;100.00;59696.56;4987247;28;51142;-66
2022/07/03 08:46:51;;;;;;;;;2.00;2.00;;;;;-147.17;100.00;59696.56;4987442;28;51394;-65
2022/07/03 08:49:18;;;;;;;;;1.67;1.67;;;;;-147.17;100.00;59696.56;4986890;28;51583;-64
2022/07/03 08:51:45;;;;;;;;;0.00;0.00;;;;;-147.17;100.00;59696.56;4986904;28;51289;-65
2022/07/03 08:54:11;;;;;;;;;1.00;1.00;;;;;-147.17;100.00;59696.56;5002400;28;51178;-65
2022/07/03 08:56:37;;;;;;;;;2.67;2.33;;;;;-147.17;100.00;59696.56;4987201;28;51397;-66
2022/07/03 08:59:05;;;;;;;;;2.00;2.00;;;;;-147.17;100.00;59696.56;4987258;28;51414;-65
2022/07/03 09:01:32;;;;;;;;;1.33;1.33;;;;;-147.17;100.00;59696.56;4987435;28;51234;-66
2022/07/03 09:03:58;;;;;;;;;1.00;1.00;;;;;-147.17;100.00;59696.56;4986935;28;51281;-66
2022/07/03 09:06:24;;;;;;;;;2.00;2.00;;;;;-147.17;100.00;59696.56;4986157;28;51187;-65
2022/07/03 09:08:51;;;;;;;;;3.00;3.00;;;;;-147.17;100.00;59696.56;4986530;28;52239;-66
2022/07/03 09:11:17;;;;;;;;;1.00;1.00;;;;;-147.17;100.00;59696.56;4986545;28;51108;-66
2022/07/03 09:13:43;;;;;;;;;1.33;1.33;;;;;-147.17;100.00;59696.56;4986267;28;51107;-65
2022/07/03 09:16:16;;;;;;;;;3.33;3.33;;;;;-147.17;100.00;59696.56;4986889;28;51424;-64
2022/07/03 09:18:44;;;;;;;;;2.00;2.00;;;;;-147.17;100.00;59696.56;4986695;28;52115;-66
2022/07/03 09:21:10;;;;;;;;;2.00;2.00;;;;;-147.17;100.00;59696.56;5000995;28;51615;-65
2022/07/03 09:23:37;;;;;;;;;2.00;2.00;;;;;-147.17;100.00;59696.56;4986791;28;53520;-65
2022/07/03 09:26:04;;;;;;;;;2.00;2.00;;;;;-147.17;100.00;59696.56;4986111;28;51126;-66
2022/07/03 09:28:52;;;;;;;;;2.00;2.00;;;;;-147.17;100.00;59696.56;4986040;28;52134;-65
2022/07/03 09:31:20;;;;;;;;;2.00;2.00;;;;;-147.17;100.00;59696.56;4986294;28;51239;-65
2022/07/03 09:33:56;;;;;;;;;3.00;2.00;;;;;-147.17;100.00;59696.56;4986216;28;53434;-67
2022/07/03 09:36:40;;;;;;;;;2.00;2.00;;;;;-147.17;100.00;59696.56;4985837;28;51249;-66
2022/07/03 09:39:22;;;;;;;;;3.00;3.00;;;;;-147.17;100.00;59696.56;4985644;28;52145;-65
2022/07/03 09:41:58;;;;;;;;;2.00;2.00;;;;;-147.17;100.00;59696.56;4986515;28;53536;-65
2022/07/03 09:44:30;;;;;;;;;4.00;3.00;;;;;-147.17;100.00;59696.56;5001713;28;51373;-66
2022/07/03 09:47:14;;;;;;;;;2.00;2.00;;;;;-147.17;100.00;59696.56;4986965;28;51402;-66
2022/07/03 09:50:13;;;;;;;;;1.00;1.00;;;;;-147.17;100.00;59696.56;4985828;28;51752;-66
2022/07/03 09:52:40;;;;;;;;;3.00;3.00;;;;;-147.17;100.00;59696.56;4960580;28;51264;-66
2022/07/03 09:55:08;;;;;;;;;4.00;4.00;;;;;-147.17;100.00;59696.56;4985688;28;51304;-65
2022/07/03 09:57:34;;;;;;;;;4.67;4.00;;;;;-147.17;100.00;59696.56;4986366;28;51130;-66
2022/07/03 10:00:16;;;;;;;;;2.67;2.67;;;;;-147.17;100.00;59696.56;4985124;28;52017;-65
2022/07/03 10:03:12;;;;;;;;;1.00;1.00;;;;;-147.17;100.00;59696.56;4986199;28;51206;-66
2022/07/03 10:05:41;;;;;;;;;4.67;4.00;;;;;-147.17;100.00;59696.56;4984030;28;51130;-66
2022/07/03 10:08:16;;;;;;;;;2.67;2.67;;;;;-147.17;100.00;59696.56;4986409;28;51417;-66
2022/07/03 10:10:44;;;;;;;;;4.67;4.67;;;;;-147.17;100.00;59696.56;5001227;28;53171;-65
2022/07/03 10:13:10;;;;;;;;;4.00;4.00;;;;;-147.17;100.00;59696.56;4985839;28;51189;-64
2022/07/03 10:15:38;;;;;;;;;6.00;6.00;;;;;-147.17;100.00;59696.56;4985833;28;51170;-66
2022/07/03 10:18:11;;;;;;;;;6.00;6.00;;;;;-147.17;100.00;59696.56;4985882;28;51685;-66
2022/07/03 10:20:44;;;;;;;;;6.00;5.33;;;;;-147.17;100.00;59696.56;4984995;28;51852;-66
2022/07/03 10:23:10;;;;;;;;;8.67;8.00;;;;;-147.17;100.00;59696.56;4985373;28;51261;-66
2022/07/03 10:25:40;;;;;;;;;8.33;8.33;;;;;-147.17;100.00;59696.56;4977755;28;51303;-65
2022/07/03 10:28:06;;;;;;;;;4.00;3.33;;;;;-147.17;100.00;59696.56;4985068;28;52183;-66
2022/07/03 10:30:32;;;;;;;;;4.67;4.67;;;;;-147.17;100.00;59696.56;4984922;28;51172;-65
2022/07/03 10:32:58;;;;;;;;;4.00;4.00;;;;;-147.17;100.00;59696.56;4984818;28;51103;-65
2022/07/03 10:35:36;;;;;;;;;5.33;5.33;;;;;-147.17;100.00;59696.56;4985390;28;51210;-65
2022/07/03 10:38:01;;;;;;;;;5.00;4.67;;;;;-147.17;100.00;59696.56;4983270;28;51527;-66
2022/07/03 10:46:25;;;;;;;;;5.67;5.00;;;;;-147.17;100.00;59696.56;4984698;28;51285;-66
2022/07/03 10:49:05;;;;;;;;;4.67;4.67;;;;;-147.17;100.00;59696.56;4985404;28;51395;-66
2022/07/03 10:51:51;;;;;;;;;7.00;6.00;;;;;-147.17;100.00;59696.56;4983841;28;52047;-67
2022/07/03 10:54:34;;;;;;;;;4.67;4.33;;;;;-147.17;100.00;59696.56;4997326;28;51507;-65
2022/07/03 10:57:02;;;;;;;;;4.33;4.33;;;;;-147.17;100.00;59696.56;4984969;28;51188;-66
2022/07/03 10:59:43;;;;;;;;;5.33;5.33;;;;;-147.17;100.00;59696.56;4985289;28;51506;-65
2022/07/03 11:02:21;;;;;;;;;6.33;5.33;;;;;-147.17;100.00;59696.56;4984271;28;52822;-66
2022/07/03 11:05:01;;;;;;;;;4.00;4.00;;;;;-147.17;100.00;59696.56;4984885;28;51335;-66
2022/07/03 11:07:38;;;;;;;;;4.33;4.33;;;;;-147.17;100.00;59696.56;4983771;28;51320;-66
2022/07/03 11:10:12;;;;;;;;;9.33;9.33;;;;;-147.17;100.00;59696.56;4984269;28;51320;-66
2022/07/03 11:12:56;;;;;;;;;6.00;6.00;;;;;-147.17;100.00;59696.56;4984387;28;51923;-66
2022/07/03 11:15:31;;;;;;;;;4.00;4.00;;;;;-147.17;100.00;59696.56;4982730;28;51221;-66
2022/07/03 11:18:08;;;;;;;;;5.33;5.33;;;;;-147.17;100.00;59696.56;4984526;28;51343;-66
2022/07/03 11:20:43;;;;;;;;;5.00;5.00;;;;;-147.17;100.00;59696.56;4983726;28;51392;-64
2022/07/03 11:23:23;;;;;;;;;5.00;5.00;;;;;-147.17;100.00;59696.56;4983744;28;52185;-66
2022/07/03 11:25:50;;;;;;;;;6.00;5.33;;;;;-147.17;100.00;59696.56;4983939;28;51230;-65
2022/07/03 11:28:34;;;;;;;;;5.67;5.33;;;;;-147.17;100.00;59696.56;4982709;28;51312;-65
2022/07/03 11:31:13;;;;;;;;;5.67;5.67;;;;;-147.17;100.00;59696.56;4982997;28;51223;-65
2022/07/03 11:33:42;;;;;;;;;6.00;6.00;;;;;-147.17;100.00;59696.56;4983597;28;52894;-65